sensor_id;sensor_type;location;lat;lon;timestamp;P1;durP1;ratioP1;P2;durP2;ratioP2
73452;SDS011;61687;56.232;43.854;2023-10-31T00:01:51;18.43;;;7.90;;
73452;SDS011;61687;56.232;43.854;2023-10-31T00:04:17;16.70;;;7.45;;
73452;SDS011;61687;56.232;43.854;2023-10-31T00:06:43;16.20;;;8.23;;
73452;SDS011;61687;56.232;43.854;2023-10-31T00:09:09;16.10;;;7.35;;
73452;SDS011;61687;56.232;43.854;2023-10-31T00:11:36;14.38;;;6.63;;
73452;SDS011;61687;56.232;43.854;2023-10-31T00:14:03;17.38;;;7.03;;
73452;SDS011;61687;56.232;43.854;2023-10-31T00:16:29;15.13;;;7.25;;
73452;SDS011;61687;56.232;43.854;2023-10-31T00:18:55;17.80;;;8.13;;
73452;SDS011;61687;56.232;43.854;2023-10-31T00:21:21;21.90;;;8.95;;
73452;SDS011;61687;56.232;43.854;2023-10-31T00:23:47;25.25;;;9.35;;
73452;SDS011;61687;56.232;43.854;2023-10-31T00:26:14;26.00;;;9.70;;
73452;SDS011;61687;56.232;43.854;2023-10-31T00:28:48;31.17;;;9.60;;
73452;SDS011;61687;56.232;43.854;2023-10-31T00:31:14;17.58;;;9.00;;
73452;SDS011;61687;56.232;43.854;2023-10-31T00:33:40;27.53;;;9.33;;
73452;SDS011;61687;56.232;43.854;2023-10-31T00:36:06;22.20;;;9.90;;
73452;SDS011;61687;56.232;43.854;2023-10-31T00:38:33;26.23;;;9.45;;
73452;SDS011;61687;56.232;43.854;2023-10-31T00:40:59;22.67;;;9.63;;
73452;SDS011;61687;56.232;43.854;2023-10-31T00:43:25;25.80;;;9.23;;
73452;SDS011;61687;56.232;43.854;2023-10-31T00:45:51;25.77;;;9.80;;
73452;SDS011;61687;56.232;43.854;2023-10-31T00:48:18;25.50;;;9.40;;
73452;SDS011;61687;56.232;43.854;2023-10-31T00:50:44;26.65;;;9.70;;
73452;SDS011;61687;56.232;43.854;2023-10-31T00:53:10;25.57;;;9.13;;
73452;SDS011;61687;56.232;43.854;2023-10-31T00:55:36;26.17;;;9.95;;
73452;SDS011;61687;56.232;43.854;2023-10-31T00:58:03;42.55;;;10.27;;
73452;SDS011;61687;56.232;43.854;2023-10-31T01:00:29;30.05;;;9.68;;
73452;SDS011;61687;56.232;43.854;2023-10-31T01:02:56;31.40;;;10.13;;
73452;SDS011;61687;56.232;43.854;2023-10-31T01:05:22;34.38;;;10.52;;
73452;SDS011;61687;56.232;43.854;2023-10-31T01:07:48;41.65;;;10.75;;
73452;SDS011;61687;56.232;43.854;2023-10-31T01:10:14;41.17;;;10.30;;
73452;SDS011;61687;56.232;43.854;2023-10-31T01:12:40;36.37;;;11.73;;
73452;SDS011;61687;56.232;43.854;2023-10-31T01:15:06;41.83;;;11.30;;
73452;SDS011;61687;56.232;43.854;2023-10-31T01:17:32;38.78;;;10.57;;
73452;SDS011;61687;56.232;43.854;2023-10-31T01:19:58;36.28;;;10.23;;
73452;SDS011;61687;56.232;43.854;2023-10-31T01:22:24;36.20;;;10.00;;
73452;SDS011;61687;56.232;43.854;2023-10-31T01:24:50;45.42;;;12.55;;
73452;SDS011;61687;56.232;43.854;2023-10-31T01:27:16;36.92;;;10.30;;
73452;SDS011;61687;56.232;43.854;2023-10-31T01:29:42;33.17;;;9.55;;
73452;SDS011;61687;56.232;43.854;2023-10-31T01:32:08;36.30;;;10.40;;
73452;SDS011;61687;56.232;43.854;2023-10-31T01:34:34;96.43;;;13.93;;
73452;SDS011;61687;56.232;43.854;2023-10-31T01:37:00;48.50;;;12.35;;
73452;SDS011;61687;56.232;43.854;2023-10-31T01:39:26;90.43;;;12.63;;
73452;SDS011;61687;56.232;43.854;2023-10-31T01:41:52;38.35;;;11.20;;
73452;SDS011;61687;56.232;43.854;2023-10-31T01:44:20;38.47;;;11.80;;
73452;SDS011;61687;56.232;43.854;2023-10-31T01:46:46;38.45;;;10.32;;
73452;SDS011;61687;56.232;43.854;2023-10-31T01:49:13;42.88;;;11.65;;
73452;SDS011;61687;56.232;43.854;2023-10-31T01:51:42;40.20;;;10.50;;
73452;SDS011;61687;56.232;43.854;2023-10-31T01:54:11;48.00;;;11.70;;
73452;SDS011;61687;56.232;43.854;2023-10-31T01:56:39;45.20;;;12.50;;
73452;SDS011;61687;56.232;43.854;2023-10-31T01:59:07;52.90;;;12.30;;
73452;SDS011;61687;56.232;43.854;2023-10-31T02:01:36;61.10;;;12.43;;
73452;SDS011;61687;56.232;43.854;2023-10-31T02:04:04;59.73;;;11.87;;
73452;SDS011;61687;56.232;43.854;2023-10-31T02:06:31;50.67;;;12.43;;
73452;SDS011;61687;56.232;43.854;2023-10-31T02:08:57;38.08;;;10.63;;
73452;SDS011;61687;56.232;43.854;2023-10-31T02:11:22;45.65;;;10.75;;
73452;SDS011;61687;56.232;43.854;2023-10-31T02:13:49;30.15;;;10.45;;
73452;SDS011;61687;56.232;43.854;2023-10-31T02:16:15;25.83;;;9.35;;
73452;SDS011;61687;56.232;43.854;2023-10-31T02:18:41;34.17;;;9.88;;
73452;SDS011;61687;56.232;43.854;2023-10-31T02:21:07;24.38;;;9.15;;
73452;SDS011;61687;56.232;43.854;2023-10-31T02:23:34;26.17;;;9.77;;
73452;SDS011;61687;56.232;43.854;2023-10-31T02:26:00;25.27;;;9.00;;
73452;SDS011;61687;56.232;43.854;2023-10-31T02:28:29;24.38;;;9.07;;
73452;SDS011;61687;56.232;43.854;2023-10-31T02:30:56;22.80;;;9.45;;
73452;SDS011;61687;56.232;43.854;2023-10-31T02:33:23;24.60;;;9.73;;
73452;SDS011;61687;56.232;43.854;2023-10-31T02:35:50;24.08;;;9.93;;
73452;SDS011;61687;56.232;43.854;2023-10-31T02:38:16;24.88;;;9.73;;
73452;SDS011;61687;56.232;43.854;2023-10-31T02:40:42;27.38;;;10.60;;
73452;SDS011;61687;56.232;43.854;2023-10-31T02:43:08;25.73;;;10.27;;
73452;SDS011;61687;56.232;43.854;2023-10-31T02:45:34;23.52;;;10.27;;
73452;SDS011;61687;56.232;43.854;2023-10-31T02:48:01;24.58;;;10.07;;
73452;SDS011;61687;56.232;43.854;2023-10-31T02:50:27;21.33;;;8.73;;
73452;SDS011;61687;56.232;43.854;2023-10-31T02:52:54;28.40;;;12.30;;
73452;SDS011;61687;56.232;43.854;2023-10-31T02:55:20;35.78;;;14.75;;
73452;SDS011;61687;56.232;43.854;2023-10-31T02:57:46;39.00;;;14.23;;
73452;SDS011;61687;56.232;43.854;2023-10-31T03:00:13;39.40;;;15.10;;
73452;SDS011;61687;56.232;43.854;2023-10-31T03:02:39;44.90;;;17.33;;
73452;SDS011;61687;56.232;43.854;2023-10-31T03:05:05;47.10;;;17.33;;
73452;SDS011;61687;56.232;43.854;2023-10-31T03:07:32;40.63;;;17.48;;
73452;SDS011;61687;56.232;43.854;2023-10-31T03:09:58;42.97;;;17.27;;
73452;SDS011;61687;56.232;43.854;2023-10-31T03:12:24;54.47;;;19.27;;
73452;SDS011;61687;56.232;43.854;2023-10-31T03:14:51;50.53;;;19.63;;
73452;SDS011;61687;56.232;43.854;2023-10-31T03:17:17;54.35;;;19.98;;
73452;SDS011;61687;56.232;43.854;2023-10-31T03:19:44;52.30;;;20.05;;
73452;SDS011;61687;56.232;43.854;2023-10-31T03:22:10;54.40;;;20.50;;
73452;SDS011;61687;56.232;43.854;2023-10-31T03:24:37;60.28;;;20.92;;
73452;SDS011;61687;56.232;43.854;2023-10-31T03:27:03;59.37;;;20.83;;
73452;SDS011;61687;56.232;43.854;2023-10-31T03:29:30;61.97;;;20.15;;
73452;SDS011;61687;56.232;43.854;2023-10-31T03:31:57;59.75;;;20.05;;
73452;SDS011;61687;56.232;43.854;2023-10-31T03:34:23;59.13;;;20.40;;
73452;SDS011;61687;56.232;43.854;2023-10-31T03:36:49;61.72;;;21.00;;
73452;SDS011;61687;56.232;43.854;2023-10-31T03:39:15;54.17;;;19.30;;
73452;SDS011;61687;56.232;43.854;2023-10-31T03:41:41;60.22;;;20.42;;
73452;SDS011;61687;56.232;43.854;2023-10-31T03:44:08;60.17;;;20.45;;
73452;SDS011;61687;56.232;43.854;2023-10-31T03:46:34;58.95;;;20.00;;
73452;SDS011;61687;56.232;43.854;2023-10-31T03:49:00;51.72;;;19.58;;
73452;SDS011;61687;56.232;43.854;2023-10-31T03:51:26;65.20;;;22.87;;
73452;SDS011;61687;56.232;43.854;2023-10-31T03:53:53;62.05;;;21.88;;
73452;SDS011;61687;56.232;43.854;2023-10-31T03:56:19;57.63;;;21.35;;
73452;SDS011;61687;56.232;43.854;2023-10-31T03:58:45;56.92;;;21.42;;
73452;SDS011;61687;56.232;43.854;2023-10-31T04:01:11;54.10;;;21.63;;
73452;SDS011;61687;56.232;43.854;2023-10-31T04:03:37;58.95;;;20.88;;
73452;SDS011;61687;56.232;43.854;2023-10-31T04:06:03;55.88;;;20.30;;
73452;SDS011;61687;56.232;43.854;2023-10-31T04:08:30;57.03;;;21.42;;
73452;SDS011;61687;56.232;43.854;2023-10-31T04:10:55;58.55;;;20.45;;
73452;SDS011;61687;56.232;43.854;2023-10-31T04:13:21;49.13;;;19.57;;
73452;SDS011;61687;56.232;43.854;2023-10-31T04:15:47;51.85;;;20.30;;
73452;SDS011;61687;56.232;43.854;2023-10-31T04:18:14;54.17;;;19.40;;
73452;SDS011;61687;56.232;43.854;2023-10-31T04:20:40;50.88;;;19.35;;
73452;SDS011;61687;56.232;43.854;2023-10-31T04:23:06;48.58;;;18.75;;
73452;SDS011;61687;56.232;43.854;2023-10-31T04:25:33;49.00;;;18.17;;
73452;SDS011;61687;56.232;43.854;2023-10-31T04:27:59;49.40;;;19.70;;
73452;SDS011;61687;56.232;43.854;2023-10-31T04:30:25;50.60;;;19.63;;
73452;SDS011;61687;56.232;43.854;2023-10-31T04:32:53;55.88;;;19.25;;
73452;SDS011;61687;56.232;43.854;2023-10-31T04:35:19;51.90;;;18.40;;
73452;SDS011;61687;56.232;43.854;2023-10-31T04:37:45;50.38;;;17.70;;
73452;SDS011;61687;56.232;43.854;2023-10-31T04:40:11;50.92;;;19.05;;
73452;SDS011;61687;56.232;43.854;2023-10-31T04:42:40;47.28;;;18.65;;
73452;SDS011;61687;56.232;43.854;2023-10-31T04:45:07;45.90;;;18.20;;
73452;SDS011;61687;56.232;43.854;2023-10-31T04:47:33;55.58;;;18.80;;
73452;SDS011;61687;56.232;43.854;2023-10-31T04:50:00;54.90;;;20.52;;
73452;SDS011;61687;56.232;43.854;2023-10-31T04:52:25;51.88;;;19.40;;
73452;SDS011;61687;56.232;43.854;2023-10-31T04:54:51;49.97;;;19.60;;
73452;SDS011;61687;56.232;43.854;2023-10-31T04:57:18;53.83;;;18.27;;
73452;SDS011;61687;56.232;43.854;2023-10-31T04:59:43;49.70;;;19.67;;
73452;SDS011;61687;56.232;43.854;2023-10-31T05:02:09;53.83;;;19.60;;
73452;SDS011;61687;56.232;43.854;2023-10-31T05:04:39;47.27;;;17.17;;
73452;SDS011;61687;56.232;43.854;2023-10-31T05:07:06;42.25;;;18.02;;
73452;SDS011;61687;56.232;43.854;2023-10-31T05:09:32;36.35;;;15.75;;
73452;SDS011;61687;56.232;43.854;2023-10-31T05:11:57;36.50;;;17.30;;
73452;SDS011;61687;56.232;43.854;2023-10-31T05:14:23;37.95;;;15.57;;
73452;SDS011;61687;56.232;43.854;2023-10-31T05:16:49;40.85;;;17.33;;
73452;SDS011;61687;56.232;43.854;2023-10-31T05:19:15;41.90;;;17.23;;
73452;SDS011;61687;56.232;43.854;2023-10-31T05:21:41;36.65;;;15.35;;
73452;SDS011;61687;56.232;43.854;2023-10-31T05:24:07;33.03;;;13.88;;
73452;SDS011;61687;56.232;43.854;2023-10-31T05:26:34;32.47;;;15.05;;
73452;SDS011;61687;56.232;43.854;2023-10-31T05:28:59;31.07;;;13.83;;
73452;SDS011;61687;56.232;43.854;2023-10-31T05:31:25;30.30;;;14.35;;
73452;SDS011;61687;56.232;43.854;2023-10-31T05:33:52;25.70;;;12.93;;
73452;SDS011;61687;56.232;43.854;2023-10-31T05:36:19;22.13;;;10.98;;
73452;SDS011;61687;56.232;43.854;2023-10-31T05:38:45;19.53;;;9.83;;
73452;SDS011;61687;56.232;43.854;2023-10-31T05:41:12;20.92;;;9.88;;
73452;SDS011;61687;56.232;43.854;2023-10-31T05:43:37;18.77;;;9.57;;
73452;SDS011;61687;56.232;43.854;2023-10-31T05:46:03;21.53;;;8.80;;
73452;SDS011;61687;56.232;43.854;2023-10-31T05:48:30;21.70;;;9.70;;
73452;SDS011;61687;56.232;43.854;2023-10-31T05:50:56;19.90;;;9.65;;
73452;SDS011;61687;56.232;43.854;2023-10-31T05:53:22;22.47;;;9.53;;
73452;SDS011;61687;56.232;43.854;2023-10-31T05:55:48;19.20;;;9.90;;
73452;SDS011;61687;56.232;43.854;2023-10-31T05:58:14;16.42;;;8.40;;
73452;SDS011;61687;56.232;43.854;2023-10-31T06:00:40;14.63;;;7.60;;
73452;SDS011;61687;56.232;43.854;2023-10-31T06:03:06;15.70;;;8.63;;
73452;SDS011;61687;56.232;43.854;2023-10-31T06:05:32;13.73;;;7.80;;
73452;SDS011;61687;56.232;43.854;2023-10-31T06:07:58;12.77;;;7.63;;
73452;SDS011;61687;56.232;43.854;2023-10-31T06:10:23;14.57;;;7.28;;
73452;SDS011;61687;56.232;43.854;2023-10-31T06:12:49;14.77;;;6.80;;
73452;SDS011;61687;56.232;43.854;2023-10-31T06:15:15;12.43;;;7.00;;
73452;SDS011;61687;56.232;43.854;2023-10-31T06:17:41;13.90;;;7.50;;
73452;SDS011;61687;56.232;43.854;2023-10-31T06:20:08;12.32;;;7.47;;
73452;SDS011;61687;56.232;43.854;2023-10-31T06:22:34;13.93;;;6.53;;
73452;SDS011;61687;56.232;43.854;2023-10-31T06:25:00;13.48;;;6.85;;
73452;SDS011;61687;56.232;43.854;2023-10-31T06:27:27;13.05;;;6.72;;
73452;SDS011;61687;56.232;43.854;2023-10-31T06:29:53;13.68;;;6.45;;
73452;SDS011;61687;56.232;43.854;2023-10-31T06:32:20;11.27;;;6.45;;
73452;SDS011;61687;56.232;43.854;2023-10-31T06:34:46;9.90;;;5.97;;
73452;SDS011;61687;56.232;43.854;2023-10-31T06:37:12;9.77;;;6.43;;
73452;SDS011;61687;56.232;43.854;2023-10-31T06:39:38;9.60;;;5.20;;
73452;SDS011;61687;56.232;43.854;2023-10-31T06:42:04;8.70;;;4.97;;
73452;SDS011;61687;56.232;43.854;2023-10-31T06:44:30;7.78;;;4.47;;
73452;SDS011;61687;56.232;43.854;2023-10-31T06:46:56;8.57;;;4.80;;
73452;SDS011;61687;56.232;43.854;2023-10-31T06:49:21;6.07;;;3.60;;
73452;SDS011;61687;56.232;43.854;2023-10-31T06:51:49;5.65;;;4.05;;
73452;SDS011;61687;56.232;43.854;2023-10-31T06:54:15;5.88;;;3.25;;
73452;SDS011;61687;56.232;43.854;2023-10-31T06:56:41;4.97;;;3.53;;
73452;SDS011;61687;56.232;43.854;2023-10-31T06:59:06;4.95;;;3.75;;
73452;SDS011;61687;56.232;43.854;2023-10-31T07:01:33;5.40;;;3.30;;
73452;SDS011;61687;56.232;43.854;2023-10-31T07:03:59;5.60;;;3.47;;
73452;SDS011;61687;56.232;43.854;2023-10-31T07:06:26;6.45;;;3.60;;
73452;SDS011;61687;56.232;43.854;2023-10-31T07:08:52;5.65;;;3.38;;
73452;SDS011;61687;56.232;43.854;2023-10-31T07:11:17;5.87;;;3.20;;
73452;SDS011;61687;56.232;43.854;2023-10-31T07:13:43;6.07;;;4.15;;
73452;SDS011;61687;56.232;43.854;2023-10-31T07:16:10;7.60;;;3.75;;
73452;SDS011;61687;56.232;43.854;2023-10-31T07:18:35;6.20;;;3.63;;
73452;SDS011;61687;56.232;43.854;2023-10-31T07:21:01;7.75;;;3.92;;
73452;SDS011;61687;56.232;43.854;2023-10-31T07:23:28;8.75;;;4.25;;
73452;SDS011;61687;56.232;43.854;2023-10-31T07:25:54;12.23;;;4.07;;
73452;SDS011;61687;56.232;43.854;2023-10-31T07:28:20;16.55;;;5.45;;
73452;SDS011;61687;56.232;43.854;2023-10-31T07:30:46;17.50;;;4.10;;
73452;SDS011;61687;56.232;43.854;2023-10-31T07:33:12;14.05;;;4.30;;
73452;SDS011;61687;56.232;43.854;2023-10-31T07:35:37;21.15;;;4.50;;
73452;SDS011;61687;56.232;43.854;2023-10-31T07:38:03;21.20;;;4.03;;
73452;SDS011;61687;56.232;43.854;2023-10-31T07:40:29;13.05;;;4.43;;
73452;SDS011;61687;56.232;43.854;2023-10-31T07:42:55;14.35;;;4.90;;
73452;SDS011;61687;56.232;43.854;2023-10-31T07:45:21;12.82;;;4.40;;
73452;SDS011;61687;56.232;43.854;2023-10-31T07:47:47;15.93;;;3.90;;
73452;SDS011;61687;56.232;43.854;2023-10-31T07:50:12;17.17;;;4.53;;
73452;SDS011;61687;56.232;43.854;2023-10-31T07:52:39;12.02;;;4.47;;
73452;SDS011;61687;56.232;43.854;2023-10-31T07:55:05;17.10;;;4.25;;
73452;SDS011;61687;56.232;43.854;2023-10-31T07:57:31;13.18;;;4.40;;
73452;SDS011;61687;56.232;43.854;2023-10-31T07:59:56;12.73;;;3.87;;
73452;SDS011;61687;56.232;43.854;2023-10-31T08:02:22;11.70;;;3.08;;
73452;SDS011;61687;56.232;43.854;2023-10-31T08:04:48;7.23;;;3.23;;
73452;SDS011;61687;56.232;43.854;2023-10-31T08:07:14;4.95;;;3.47;;
73452;SDS011;61687;56.232;43.854;2023-10-31T08:09:40;4.10;;;2.57;;
73452;SDS011;61687;56.232;43.854;2023-10-31T08:12:06;4.43;;;2.92;;
73452;SDS011;61687;56.232;43.854;2023-10-31T08:14:32;4.78;;;2.78;;
73452;SDS011;61687;56.232;43.854;2023-10-31T08:17:00;4.20;;;3.05;;
73452;SDS011;61687;56.232;43.854;2023-10-31T08:19:25;5.23;;;3.00;;
73452;SDS011;61687;56.232;43.854;2023-10-31T08:21:51;5.55;;;3.40;;
73452;SDS011;61687;56.232;43.854;2023-10-31T08:24:17;4.82;;;3.20;;
73452;SDS011;61687;56.232;43.854;2023-10-31T08:26:43;4.78;;;3.20;;
73452;SDS011;61687;56.232;43.854;2023-10-31T08:29:09;7.15;;;2.88;;
73452;SDS011;61687;56.232;43.854;2023-10-31T08:31:35;7.87;;;3.30;;
73452;SDS011;61687;56.232;43.854;2023-10-31T08:34:01;5.43;;;3.72;;
73452;SDS011;61687;56.232;43.854;2023-10-31T08:36:29;7.57;;;4.15;;
73452;SDS011;61687;56.232;43.854;2023-10-31T08:38:55;6.30;;;3.70;;
73452;SDS011;61687;56.232;43.854;2023-10-31T08:41:20;5.15;;;3.60;;
73452;SDS011;61687;56.232;43.854;2023-10-31T08:43:47;4.95;;;3.40;;
73452;SDS011;61687;56.232;43.854;2023-10-31T08:46:13;4.82;;;3.30;;
73452;SDS011;61687;56.232;43.854;2023-10-31T08:48:39;7.20;;;3.43;;
73452;SDS011;61687;56.232;43.854;2023-10-31T08:51:05;5.05;;;3.33;;
73452;SDS011;61687;56.232;43.854;2023-10-31T08:53:31;4.65;;;3.03;;
73452;SDS011;61687;56.232;43.854;2023-10-31T08:55:57;5.07;;;3.47;;
73452;SDS011;61687;56.232;43.854;2023-10-31T08:58:23;4.93;;;3.25;;
73452;SDS011;61687;56.232;43.854;2023-10-31T09:00:49;5.38;;;3.65;;
73452;SDS011;61687;56.232;43.854;2023-10-31T09:03:15;5.43;;;3.88;;
73452;SDS011;61687;56.232;43.854;2023-10-31T09:05:40;5.80;;;3.77;;
73452;SDS011;61687;56.232;43.854;2023-10-31T09:08:06;6.35;;;3.78;;
73452;SDS011;61687;56.232;43.854;2023-10-31T09:10:33;7.03;;;3.73;;
73452;SDS011;61687;56.232;43.854;2023-10-31T09:13:05;6.63;;;4.03;;
73452;SDS011;61687;56.232;43.854;2023-10-31T09:15:31;7.40;;;3.70;;
73452;SDS011;61687;56.232;43.854;2023-10-31T09:17:56;11.02;;;4.85;;
73452;SDS011;61687;56.232;43.854;2023-10-31T09:20:22;10.03;;;6.00;;
73452;SDS011;61687;56.232;43.854;2023-10-31T09:22:48;15.13;;;6.47;;
73452;SDS011;61687;56.232;43.854;2023-10-31T09:25:14;10.50;;;5.30;;
73452;SDS011;61687;56.232;43.854;2023-10-31T09:27:40;12.77;;;5.30;;
73452;SDS011;61687;56.232;43.854;2023-10-31T09:30:06;12.40;;;4.97;;
73452;SDS011;61687;56.232;43.854;2023-10-31T09:32:33;11.95;;;4.97;;
73452;SDS011;61687;56.232;43.854;2023-10-31T09:34:58;11.37;;;5.00;;
73452;SDS011;61687;56.232;43.854;2023-10-31T09:37:24;10.25;;;4.53;;
73452;SDS011;61687;56.232;43.854;2023-10-31T09:39:50;7.60;;;4.13;;
73452;SDS011;61687;56.232;43.854;2023-10-31T09:42:16;6.78;;;3.50;;
73452;SDS011;61687;56.232;43.854;2023-10-31T09:44:42;6.60;;;3.97;;
73452;SDS011;61687;56.232;43.854;2023-10-31T09:47:08;5.90;;;3.80;;
73452;SDS011;61687;56.232;43.854;2023-10-31T09:49:34;7.03;;;3.72;;
73452;SDS011;61687;56.232;43.854;2023-10-31T09:52:00;5.90;;;3.97;;
73452;SDS011;61687;56.232;43.854;2023-10-31T09:54:26;7.97;;;4.80;;
73452;SDS011;61687;56.232;43.854;2023-10-31T09:56:52;6.82;;;4.38;;
73452;SDS011;61687;56.232;43.854;2023-10-31T09:59:18;5.40;;;3.23;;
73452;SDS011;61687;56.232;43.854;2023-10-31T10:01:44;7.15;;;3.97;;
73452;SDS011;61687;56.232;43.854;2023-10-31T10:04:10;7.10;;;4.88;;
73452;SDS011;61687;56.232;43.854;2023-10-31T10:06:39;7.40;;;4.17;;
73452;SDS011;61687;56.232;43.854;2023-10-31T10:09:15;6.68;;;4.10;;
73452;SDS011;61687;56.232;43.854;2023-10-31T10:11:40;7.72;;;4.40;;
73452;SDS011;61687;56.232;43.854;2023-10-31T10:14:06;7.72;;;4.40;;
73452;SDS011;61687;56.232;43.854;2023-10-31T10:16:34;8.63;;;4.55;;
73452;SDS011;61687;56.232;43.854;2023-10-31T10:19:16;9.80;;;5.75;;
73452;SDS011;61687;56.232;43.854;2023-10-31T10:21:50;11.48;;;5.25;;
73452;SDS011;61687;56.232;43.854;2023-10-31T10:24:18;10.07;;;5.82;;
73452;SDS011;61687;56.232;43.854;2023-10-31T10:26:45;10.73;;;5.80;;
73452;SDS011;61687;56.232;43.854;2023-10-31T10:29:11;10.15;;;5.82;;
73452;SDS011;61687;56.232;43.854;2023-10-31T10:31:37;10.45;;;6.45;;
73452;SDS011;61687;56.232;43.854;2023-10-31T10:34:03;11.80;;;6.45;;
73452;SDS011;61687;56.232;43.854;2023-10-31T10:36:31;12.18;;;6.32;;
73452;SDS011;61687;56.232;43.854;2023-10-31T10:38:58;13.30;;;6.93;;
73452;SDS011;61687;56.232;43.854;2023-10-31T10:41:25;12.32;;;6.47;;
73452;SDS011;61687;56.232;43.854;2023-10-31T10:43:56;11.93;;;6.13;;
73452;SDS011;61687;56.232;43.854;2023-10-31T10:46:33;10.75;;;5.50;;
73452;SDS011;61687;56.232;43.854;2023-10-31T10:49:03;10.25;;;5.68;;
73452;SDS011;61687;56.232;43.854;2023-10-31T10:51:49;10.33;;;5.10;;
73452;SDS011;61687;56.232;43.854;2023-10-31T10:54:26;10.32;;;4.70;;
73452;SDS011;61687;56.232;43.854;2023-10-31T10:57:01;10.45;;;5.57;;
73452;SDS011;61687;56.232;43.854;2023-10-31T10:59:38;10.68;;;5.68;;
73452;SDS011;61687;56.232;43.854;2023-10-31T11:02:07;11.60;;;5.68;;
73452;SDS011;61687;56.232;43.854;2023-10-31T11:04:36;10.20;;;5.43;;
73452;SDS011;61687;56.232;43.854;2023-10-31T11:07:02;10.52;;;5.30;;
73452;SDS011;61687;56.232;43.854;2023-10-31T11:09:29;9.90;;;5.68;;
73452;SDS011;61687;56.232;43.854;2023-10-31T11:11:57;10.90;;;5.82;;
73452;SDS011;61687;56.232;43.854;2023-10-31T11:14:24;10.73;;;6.30;;
73452;SDS011;61687;56.232;43.854;2023-10-31T11:16:52;9.00;;;5.10;;
73452;SDS011;61687;56.232;43.854;2023-10-31T11:19:19;9.10;;;5.18;;
73452;SDS011;61687;56.232;43.854;2023-10-31T11:22:09;7.88;;;5.20;;
73452;SDS011;61687;56.232;43.854;2023-10-31T11:24:38;7.13;;;4.85;;
73452;SDS011;61687;56.232;43.854;2023-10-31T11:27:05;9.70;;;4.88;;
73452;SDS011;61687;56.232;43.854;2023-10-31T11:29:32;7.53;;;4.57;;
73452;SDS011;61687;56.232;43.854;2023-10-31T11:31:58;9.05;;;5.10;;
73452;SDS011;61687;56.232;43.854;2023-10-31T11:34:28;8.32;;;5.20;;
73452;SDS011;61687;56.232;43.854;2023-10-31T11:42:41;9.10;;;4.27;;
73452;SDS011;61687;56.232;43.854;2023-10-31T11:45:08;8.65;;;5.18;;
73452;SDS011;61687;56.232;43.854;2023-10-31T11:50:12;9.23;;;5.43;;
73452;SDS011;61687;56.232;43.854;2023-10-31T11:52:38;8.00;;;5.07;;
73452;SDS011;61687;56.232;43.854;2023-10-31T11:55:06;8.27;;;4.70;;
73452;SDS011;61687;56.232;43.854;2023-10-31T11:57:35;8.32;;;5.63;;
73452;SDS011;61687;56.232;43.854;2023-10-31T12:00:02;9.15;;;4.90;;
73452;SDS011;61687;56.232;43.854;2023-10-31T12:02:38;7.85;;;4.28;;
73452;SDS011;61687;56.232;43.854;2023-10-31T12:05:10;6.87;;;4.40;;
73452;SDS011;61687;56.232;43.854;2023-10-31T12:07:46;7.53;;;4.88;;
73452;SDS011;61687;56.232;43.854;2023-10-31T12:10:12;9.65;;;5.57;;
73452;SDS011;61687;56.232;43.854;2023-10-31T12:12:47;7.50;;;4.78;;
73452;SDS011;61687;56.232;43.854;2023-10-31T12:15:13;7.72;;;4.82;;
73452;SDS011;61687;56.232;43.854;2023-10-31T12:17:39;7.45;;;4.28;;
73452;SDS011;61687;56.232;43.854;2023-10-31T12:20:06;6.93;;;4.60;;
73452;SDS011;61687;56.232;43.854;2023-10-31T12:22:33;8.82;;;4.88;;
73452;SDS011;61687;56.232;43.854;2023-10-31T12:25:04;8.65;;;5.20;;
73452;SDS011;61687;56.232;43.854;2023-10-31T12:30:16;9.52;;;6.15;;
73452;SDS011;61687;56.232;43.854;2023-10-31T12:32:44;9.50;;;6.10;;
73452;SDS011;61687;56.232;43.854;2023-10-31T12:35:11;10.73;;;6.80;;
73452;SDS011;61687;56.232;43.854;2023-10-31T12:37:45;11.23;;;7.13;;
73452;SDS011;61687;56.232;43.854;2023-10-31T12:40:13;11.32;;;6.90;;
73452;SDS011;61687;56.232;43.854;2023-10-31T12:42:45;12.15;;;7.47;;
73452;SDS011;61687;56.232;43.854;2023-10-31T12:45:12;13.03;;;7.53;;
73452;SDS011;61687;56.232;43.854;2023-10-31T12:47:39;10.07;;;5.80;;
73452;SDS011;61687;56.232;43.854;2023-10-31T12:50:12;10.10;;;5.90;;
73452;SDS011;61687;56.232;43.854;2023-10-31T12:52:45;11.00;;;6.15;;
73452;SDS011;61687;56.232;43.854;2023-10-31T12:55:12;17.33;;;7.65;;
73452;SDS011;61687;56.232;43.854;2023-10-31T12:57:41;13.97;;;6.90;;
73452;SDS011;61687;56.232;43.854;2023-10-31T13:00:07;14.20;;;7.00;;
73452;SDS011;61687;56.232;43.854;2023-10-31T13:02:36;11.57;;;6.65;;
73452;SDS011;61687;56.232;43.854;2023-10-31T13:05:09;10.20;;;6.38;;
73452;SDS011;61687;56.232;43.854;2023-10-31T13:07:37;14.90;;;8.55;;
73452;SDS011;61687;56.232;43.854;2023-10-31T13:10:04;15.77;;;9.05;;
73452;SDS011;61687;56.232;43.854;2023-10-31T13:12:31;13.60;;;8.05;;
73452;SDS011;61687;56.232;43.854;2023-10-31T13:14:57;14.80;;;7.85;;
73452;SDS011;61687;56.232;43.854;2023-10-31T13:17:22;13.13;;;7.83;;
73452;SDS011;61687;56.232;43.854;2023-10-31T13:19:48;16.65;;;6.60;;
73452;SDS011;61687;56.232;43.854;2023-10-31T13:22:14;12.90;;;7.43;;
73452;SDS011;61687;56.232;43.854;2023-10-31T13:24:40;12.10;;;6.43;;
73452;SDS011;61687;56.232;43.854;2023-10-31T13:27:06;11.98;;;7.25;;
73452;SDS011;61687;56.232;43.854;2023-10-31T13:29:33;12.07;;;6.78;;
73452;SDS011;61687;56.232;43.854;2023-10-31T13:31:59;14.27;;;7.10;;
73452;SDS011;61687;56.232;43.854;2023-10-31T13:34:25;12.43;;;6.47;;
73452;SDS011;61687;56.232;43.854;2023-10-31T13:36:50;12.77;;;6.50;;
73452;SDS011;61687;56.232;43.854;2023-10-31T13:39:18;10.38;;;5.65;;
73452;SDS011;61687;56.232;43.854;2023-10-31T13:41:43;12.10;;;7.00;;
73452;SDS011;61687;56.232;43.854;2023-10-31T13:44:09;12.77;;;6.75;;
73452;SDS011;61687;56.232;43.854;2023-10-31T13:46:35;13.13;;;7.23;;
73452;SDS011;61687;56.232;43.854;2023-10-31T13:49:01;12.55;;;6.05;;
73452;SDS011;61687;56.232;43.854;2023-10-31T13:51:27;12.07;;;6.85;;
73452;SDS011;61687;56.232;43.854;2023-10-31T13:53:53;10.43;;;6.33;;
73452;SDS011;61687;56.232;43.854;2023-10-31T13:56:18;10.32;;;5.78;;
73452;SDS011;61687;56.232;43.854;2023-10-31T13:58:44;9.13;;;5.32;;
73452;SDS011;61687;56.232;43.854;2023-10-31T14:01:10;11.02;;;6.07;;
73452;SDS011;61687;56.232;43.854;2023-10-31T14:03:36;11.43;;;6.50;;
73452;SDS011;61687;56.232;43.854;2023-10-31T14:06:02;11.17;;;6.37;;
73452;SDS011;61687;56.232;43.854;2023-10-31T14:08:28;11.20;;;6.07;;
73452;SDS011;61687;56.232;43.854;2023-10-31T14:10:53;11.77;;;6.53;;
73452;SDS011;61687;56.232;43.854;2023-10-31T14:13:20;11.45;;;6.35;;
73452;SDS011;61687;56.232;43.854;2023-10-31T14:15:46;13.85;;;6.68;;
73452;SDS011;61687;56.232;43.854;2023-10-31T14:18:12;12.73;;;7.53;;
73452;SDS011;61687;56.232;43.854;2023-10-31T14:20:38;14.48;;;6.25;;
73452;SDS011;61687;56.232;43.854;2023-10-31T14:23:06;10.25;;;6.25;;
73452;SDS011;61687;56.232;43.854;2023-10-31T14:25:31;11.77;;;5.83;;
73452;SDS011;61687;56.232;43.854;2023-10-31T14:27:57;11.52;;;6.22;;
73452;SDS011;61687;56.232;43.854;2023-10-31T14:30:23;11.88;;;5.55;;